createdAt,value
2019-02-27T00:01:53.657Z,65.75
2019-02-27T00:06:55.602Z,65.78
2019-02-27T00:11:57.192Z,66.14
2019-02-27T00:16:58.881Z,66.30
2019-02-27T00:22:00.485Z,66.43
2019-02-27T00:27:02.078Z,66.71
2019-02-27T00:32:04.029Z,66.63
2019-02-27T00:37:05.598Z,66.56
2019-02-27T00:42:07.186Z,66.55
2019-02-27T00:47:08.808Z,66.54
2019-02-27T00:52:10.799Z,66.59
2019-02-27T00:57:12.495Z,66.53
2019-02-27T01:02:14.383Z,66.67
2019-02-27T01:07:20.212Z,67.22
2019-02-27T01:12:19.867Z,68.16
2019-02-27T01:17:23.855Z,68.49
2019-02-27T01:22:24.939Z,68.59
2019-02-27T01:27:26.469Z,68.77
2019-02-27T01:32:28.892Z,68.69
2019-02-27T01:37:32.342Z,69.31
2019-02-27T01:42:34.202Z,69.47
2019-02-27T01:47:36.539Z,68.99
2019-02-27T01:52:38.305Z,68.47
2019-02-27T01:57:39.891Z,68.37
2019-02-27T02:02:41.459Z,68.40
2019-02-27T02:07:45.527Z,68.40
2019-02-27T02:12:53.384Z,68.50
2019-02-27T02:18:43.171Z,68.18
2019-02-27T02:24:21.685Z,68.04
2019-02-27T02:29:52.995Z,67.94
2019-02-27T02:35:32.384Z,68.28
2019-02-27T02:40:56.947Z,68.37
2019-02-27T02:46:13.221Z,68.40
2019-02-27T02:51:32.055Z,68.60
2019-02-27T02:56:39.068Z,68.89
2019-02-27T03:01:51.908Z,68.80
2019-02-27T03:07:44.496Z,68.80
2019-02-27T03:13:20.323Z,69.02
2019-02-27T03:19:18.965Z,69.08
2019-02-27T03:25:14.918Z,69.18
2019-02-27T03:30:52.078Z,69.31
2019-02-27T03:36:16.350Z,69.43
2019-02-27T03:41:58.513Z,69.58
2019-02-27T03:47:16.729Z,69.80
2019-02-27T03:52:56.207Z,69.65
2019-02-27T03:58:38.463Z,69.80
2019-02-27T04:04:13.193Z,70.00
2019-02-27T04:09:18.532Z,69.94
2019-02-27T04:14:40.081Z,70.14
2019-02-27T04:19:40.640Z,70.25
2019-02-27T04:24:42.435Z,70.62
2019-02-27T04:29:44.080Z,70.65
2019-02-27T04:34:45.633Z,70.72
2019-02-27T04:39:47.176Z,70.61
2019-02-27T04:44:48.754Z,70.85
2019-02-27T04:49:50.323Z,70.68
2019-02-27T04:54:52.109Z,70.83
2019-02-27T04:59:53.694Z,71.08
2019-02-27T05:04:55.724Z,71.48
2019-02-27T05:09:57.687Z,72.01
2019-02-27T05:15:00.944Z,71.83
2019-02-27T05:20:03.091Z,71.88
2019-02-27T05:25:04.780Z,71.92
2019-02-27T05:30:06.692Z,71.59
2019-02-27T05:35:08.288Z,71.35
2019-02-27T05:40:10.307Z,71.64
2019-02-27T05:45:11.887Z,71.90
2019-02-27T05:50:13.796Z,71.78
2019-02-27T05:55:15.380Z,71.90
2019-02-27T06:00:17.030Z,72.27
2019-02-27T06:05:18.801Z,72.33
2019-02-27T06:10:21.137Z,72.15
2019-02-27T06:15:26.045Z,72.07
2019-02-27T06:20:27.602Z,72.34
2019-02-27T06:25:29.395Z,72.97
2019-02-27T06:30:31.405Z,72.64
2019-02-27T06:35:36.577Z,72.32
2019-02-27T06:40:42.120Z,72.61
2019-02-27T06:45:45.482Z,72.13
2019-02-27T06:50:45.261Z,71.86
2019-02-27T06:55:46.994Z,73.65
2019-02-27T07:00:48.953Z,73.87
2019-02-27T07:05:50.562Z,74.00
2019-02-27T07:10:52.129Z,74.71
2019-02-27T07:15:55.579Z,74.47
2019-02-27T07:20:58.424Z,74.04
2019-02-27T07:26:00.891Z,73.53
2019-02-27T07:31:02.538Z,73.55
2019-02-27T07:36:04.602Z,72.87
2019-02-27T07:41:06.224Z,72.82
2019-02-27T07:46:07.832Z,73.10
2019-02-27T07:51:09.426Z,73.64
2019-02-27T07:56:11.485Z,73.32
2019-02-27T08:01:13.455Z,74.22
2019-02-27T08:06:15.271Z,75.30
2019-02-27T08:11:16.842Z,76.15
2019-02-27T08:16:18.828Z,75.37
2019-02-27T08:21:20.426Z,75.33
2019-02-27T08:26:22.454Z,76.22
2019-02-27T08:31:27.890Z,76.27
2019-02-27T08:36:28.014Z,75.50
2019-02-27T08:41:31.465Z,74.38
2019-02-27T08:46:34.021Z,74.31
2019-02-27T08:51:39.788Z,74.08
2019-02-27T08:56:40.787Z,74.32
2019-02-27T09:01:42.485Z,74.62
2019-02-27T09:06:44.255Z,75.02
2019-02-27T09:11:45.830Z,74.27
2019-02-27T09:16:47.453Z,73.24
2019-02-27T09:21:49.062Z,72.08
2019-02-27T09:26:51.034Z,70.19
2019-02-27T09:31:52.699Z,69.41
2019-02-27T09:36:54.368Z,67.82
2019-02-27T09:41:55.947Z,66.52
2019-02-27T09:46:57.485Z,65.44
2019-02-27T09:51:59.086Z,64.06
2019-02-27T09:57:02.251Z,63.80
2019-02-27T10:02:06.362Z,62.78
2019-02-27T10:07:08.628Z,61.34
2019-02-27T10:12:11.311Z,59.62
2019-02-27T10:17:12.967Z,58.69
2019-02-27T10:22:17.889Z,57.55
2019-02-27T10:27:18.096Z,56.64
2019-02-27T10:32:20.061Z,55.68
2019-02-27T10:37:21.800Z,53.27
2019-02-27T10:42:23.433Z,53.74
2019-02-27T10:47:25.244Z,52.53
2019-02-27T10:52:27.206Z,52.04
2019-02-27T10:57:32.538Z,52.46
2019-02-27T11:02:32.679Z,50.09
2019-02-27T11:07:34.252Z,49.62
2019-02-27T11:12:35.915Z,48.84
2019-02-27T11:17:37.632Z,48.44
2019-02-27T11:22:39.207Z,48.95
2019-02-27T11:27:40.822Z,49.15
2019-02-27T11:32:42.405Z,48.78
2019-02-27T11:37:46.630Z,46.55
2019-02-27T11:42:47.517Z,48.62
2019-02-27T11:47:49.696Z,48.05
2019-02-27T11:52:51.393Z,48.56
2019-02-27T11:57:53.007Z,48.92
2019-02-27T12:02:54.994Z,48.20
2019-02-27T12:07:56.607Z,48.63
2019-02-27T12:13:00.727Z,50.16
2019-02-27T12:18:02.094Z,50.32
2019-02-27T12:23:03.869Z,49.68
2019-02-27T12:28:05.514Z,50.67
2019-02-27T12:33:07.122Z,49.14
2019-02-27T12:38:08.686Z,48.62
2019-02-27T12:43:10.935Z,47.64
2019-02-27T12:48:13.350Z,49.60
2019-02-27T12:53:15.001Z,50.35
2019-02-27T12:58:17.053Z,48.71
2019-02-27T13:03:18.694Z,51.05
2019-02-27T13:08:20.289Z,50.49
2019-02-27T13:13:23.277Z,50.81
2019-02-27T13:18:25.455Z,50.94
2019-02-27T13:23:27.032Z,50.49
2019-02-27T13:28:28.588Z,46.23
2019-02-27T13:33:30.131Z,44.90
2019-02-27T13:38:31.725Z,45.18
2019-02-27T13:43:33.305Z,47.37
2019-02-27T13:48:37.365Z,47.27
2019-02-27T13:53:38.353Z,47.53
2019-02-27T13:58:39.987Z,50.06
2019-02-27T14:03:41.589Z,49.44
2019-02-27T14:08:43.852Z,43.30
2019-02-27T14:13:45.580Z,48.00
2019-02-27T14:18:49.790Z,45.43
2019-02-27T14:23:50.708Z,46.84
2019-02-27T14:28:55.120Z,43.28
2019-02-27T14:33:56.157Z,47.34
2019-02-27T14:38:58.145Z,44.81
2019-02-27T14:44:02.871Z,46.42
2019-02-27T14:49:04.491Z,46.53
2019-02-27T14:54:06.107Z,45.96
2019-02-27T14:59:07.953Z,41.83
2019-02-27T15:04:09.586Z,40.15
2019-02-27T15:09:11.188Z,46.29
2019-02-27T15:14:12.846Z,49.88
2019-02-27T15:19:14.462Z,49.51
2019-02-27T15:24:16.127Z,46.92
2019-02-27T15:29:17.723Z,42.53
2019-02-27T15:34:19.340Z,42.79
2019-02-27T15:39:21.335Z,44.82
2019-02-27T15:44:22.898Z,50.33
2019-02-27T15:49:24.473Z,47.33
2019-02-27T15:54:26.090Z,50.79
2019-02-27T16:04:44.435Z,49.85
2019-02-27T16:09:46.383Z,49.56
2019-02-27T16:14:48.358Z,50.65
2019-02-27T16:19:50.447Z,47.92
2019-02-27T16:24:52.153Z,49.59
2019-02-27T16:29:54.107Z,50.32
2019-02-27T16:34:57.303Z,53.44
2019-02-27T16:39:59.048Z,54.06
2019-02-27T16:45:00.808Z,51.63
2019-02-27T16:50:02.354Z,50.38
2019-02-27T16:55:04.648Z,51.29
2019-02-27T17:00:07.088Z,52.18
2019-02-27T17:05:09.517Z,49.84
2019-02-27T17:10:14.966Z,53.33
2019-02-27T17:15:17.850Z,52.57
2019-02-27T17:20:19.574Z,51.78
2019-02-27T17:25:21.161Z,49.93
2019-02-27T17:30:27.661Z,51.41
2019-02-27T17:35:29.192Z,50.62
2019-02-27T17:40:30.747Z,51.96
2019-02-27T17:45:32.406Z,51.37
2019-02-27T17:50:33.933Z,51.55
2019-02-27T17:55:38.231Z,52.13
2019-02-27T18:00:39.249Z,52.05
2019-02-27T18:05:41.189Z,52.39
2019-02-27T18:10:42.927Z,53.32
2019-02-27T18:15:44.729Z,53.87
2019-02-27T18:20:46.976Z,55.07
2019-02-27T18:25:48.929Z,55.39
2019-02-27T18:30:53.209Z,55.63
2019-02-27T18:35:54.596Z,56.42
2019-02-27T18:40:56.628Z,56.68
2019-02-27T18:45:58.972Z,56.96
2019-02-27T18:51:01.289Z,57.58
2019-02-27T18:56:03.479Z,58.85
2019-02-27T19:01:09.520Z,59.29
2019-02-27T19:06:12.015Z,59.07
2019-02-27T19:11:12.922Z,59.87
2019-02-27T19:16:17.455Z,59.84
2019-02-27T19:21:19.907Z,60.28
2019-02-27T19:26:22.226Z,60.49
2019-02-27T19:31:24.113Z,61.65
2019-02-27T19:36:30.519Z,61.39
2019-02-27T19:41:29.447Z,62.04
2019-02-27T19:46:31.482Z,61.93
2019-02-27T19:51:33.192Z,62.17
2019-02-27T19:56:35.506Z,62.58
2019-02-27T20:01:40.466Z,62.26
2019-02-27T20:06:41.915Z,62.85
2019-02-27T20:11:43.553Z,63.62
2019-02-27T20:16:45.155Z,63.43
2019-02-27T20:21:50.554Z,63.44
2019-02-27T20:26:54.685Z,63.61
2019-02-27T20:31:58.781Z,64.10
2019-02-27T20:37:03.305Z,65.09
2019-02-27T20:42:05.740Z,65.21
2019-02-27T20:47:07.589Z,65.16
2019-02-27T20:52:14.539Z,65.27
2019-02-27T20:57:12.823Z,65.25
2019-02-27T21:02:14.763Z,64.82
2019-02-27T21:07:22.262Z,64.58
2019-02-27T21:12:19.859Z,64.88
2019-02-27T21:17:22.375Z,65.38
2019-02-27T21:22:28.389Z,65.52
2019-02-27T21:27:32.934Z,65.56
2019-02-27T21:32:36.167Z,65.85
2019-02-27T21:37:37.850Z,66.00
2019-02-27T21:42:39.547Z,66.07
2019-02-27T21:47:41.271Z,67.23
2019-02-27T21:52:42.870Z,67.65
2019-02-27T21:57:44.561Z,68.08
2019-02-27T22:02:46.223Z,67.83
2019-02-27T22:07:47.904Z,67.37
2019-02-27T22:12:49.571Z,67.91
2019-02-27T22:17:51.180Z,67.60
2019-02-27T22:22:52.753Z,67.70
2019-02-27T22:27:54.398Z,67.88
2019-02-27T22:32:56.322Z,67.89
2019-02-27T22:37:57.943Z,68.25
2019-02-27T22:42:59.517Z,68.41
2019-02-27T22:48:01.162Z,68.57
2019-02-27T22:53:02.824Z,68.57
2019-02-27T22:58:04.765Z,68.94
2019-02-27T23:03:06.407Z,68.93
2019-02-27T23:08:07.945Z,69.09
2019-02-27T23:13:12.438Z,69.36
2019-02-27T23:18:13.578Z,69.70
2019-02-27T23:23:15.156Z,70.10
2019-02-27T23:28:16.802Z,70.25
2019-02-27T23:33:18.356Z,70.33
2019-02-27T23:38:20.007Z,70.51
2019-02-27T23:43:22.208Z,70.66
2019-02-27T23:48:24.180Z,70.73
2019-02-27T23:53:27.140Z,70.75
2019-02-27T23:58:29.654Z,70.88
